Time;durP1;ratioP1;P1;durP2;ratioP2;P2;SDS_P1;SDS_P2;PMS_P1;PMS_P2;Temp;Humidity;BMP_temperature;BMP_pressure;BME280_temperature;BME280_humidity;BME280_pressure;Samples;Min_cycle;Max_cycle;Signal;HPM_P1;HPM_P2
2024/01/24 00:01:49;;;;;;;1.80;0.60;;;;;;;;;;4987297;28;20453;-82
2024/01/24 00:04:16;;;;;;;1.87;0.80;;;;;;;;;;5006370;28;20458;-83
2024/01/24 00:06:43;;;;;;;1.27;0.70;;;;;;;;;;4983630;28;20478;-83
2024/01/24 00:09:10;;;;;;;3.43;0.90;;;;;;;;;;4989014;28;20910;-82
2024/01/24 00:11:37;;;;;;;1.03;0.90;;;;;;;;;;4988321;28;20474;-83
2024/01/24 00:14:05;;;;;;;1.50;0.70;;;;;;;;;;4996390;28;20469;-86
2024/01/24 00:16:32;;;;;;;0.70;0.70;;;;;;;;;;5010205;28;20494;-84
2024/01/24 00:18:59;;;;;;;1.90;0.60;;;;;;;;;;4993653;28;20481;-86
2024/01/24 00:21:26;;;;;;;1.77;1.00;;;;;;;;;;5006784;28;20568;-84
2024/01/24 00:23:54;;;;;;;1.97;1.27;;;;;;;;;;4984756;28;20526;-84
2024/01/24 00:26:26;;;;;;;1.17;1.07;;;;;;;;;;4982283;28;20534;-85
2024/01/24 00:28:53;;;;;;;1.73;1.10;;;;;;;;;;5010875;28;20455;-84
2024/01/24 00:31:21;;;;;;;1.50;1.13;;;;;;;;;;5009371;28;20450;-85
2024/01/24 00:33:51;;;;;;;1.30;1.03;;;;;;;;;;4992094;28;20517;-85
2024/01/24 00:36:19;;;;;;;1.77;0.80;;;;;;;;;;5008195;28;20568;-85
2024/01/24 00:38:46;;;;;;;1.57;0.97;;;;;;;;;;5007551;28;20463;-85
2024/01/24 00:41:13;;;;;;;1.53;0.83;;;;;;;;;;5008309;28;20458;-86
2024/01/24 00:43:40;;;;;;;2.13;1.00;;;;;;;;;;4986522;28;20465;-85
2024/01/24 00:46:08;;;;;;;1.13;0.90;;;;;;;;;;4983700;28;20542;-85
2024/01/24 00:48:35;;;;;;;1.00;0.90;;;;;;;;;;4981246;28;20465;-83
2024/01/24 00:51:03;;;;;;;1.40;1.30;;;;;;;;;;4991560;28;20848;-86
2024/01/24 00:53:30;;;;;;;2.07;1.23;;;;;;;;;;4981859;28;20461;-85
2024/01/24 00:55:59;;;;;;;1.47;1.00;;;;;;;;;;4986386;28;20486;-84
2024/01/24 00:58:26;;;;;;;1.33;1.20;;;;;;;;;;5004366;28;20471;-83
2024/01/24 01:00:53;;;;;;;2.47;0.83;;;;;;;;;;4986084;28;20451;-86
2024/01/24 01:03:23;;;;;;;1.53;0.83;;;;;;;;;;4979958;28;20473;-85
2024/01/24 01:05:50;;;;;;;3.77;1.00;;;;;;;;;;4987563;28;20497;-84
2024/01/24 01:08:17;;;;;;;0.90;0.90;;;;;;;;;;4982532;28;20459;-85
2024/01/24 01:10:45;;;;;;;1.90;1.40;;;;;;;;;;4985931;28;20454;-84
2024/01/24 01:13:12;;;;;;;1.30;1.00;;;;;;;;;;5004927;28;20451;-85
2024/01/24 01:15:39;;;;;;;1.87;1.27;;;;;;;;;;5005502;28;20502;-84
2024/01/24 01:18:06;;;;;;;2.90;1.00;;;;;;;;;;5004746;28;20511;-84
2024/01/24 01:20:33;;;;;;;4.93;1.27;;;;;;;;;;4981232;28;20623;-84
2024/01/24 01:23:01;;;;;;;1.23;0.93;;;;;;;;;;4978411;28;20494;-85
2024/01/24 01:25:29;;;;;;;2.23;1.00;;;;;;;;;;4989642;28;20613;-86
2024/01/24 01:27:56;;;;;;;1.23;1.03;;;;;;;;;;4989453;28;20470;-84
2024/01/24 01:30:25;;;;;;;2.20;0.97;;;;;;;;;;5004584;28;20981;-86
2024/01/24 01:32:58;;;;;;;1.43;1.20;;;;;;;;;;4978993;28;20582;-83
2024/01/24 01:35:27;;;;;;;1.10;0.90;;;;;;;;;;5007787;28;20524;-86
2024/01/24 01:37:54;;;;;;;1.10;1.00;;;;;;;;;;4988181;28;20454;-84
2024/01/24 01:40:21;;;;;;;1.50;1.10;;;;;;;;;;4978830;28;20486;-84
2024/01/24 01:42:48;;;;;;;0.77;0.77;;;;;;;;;;5012823;28;20469;-84
2024/01/24 01:45:15;;;;;;;1.87;1.30;;;;;;;;;;4994883;28;20451;-84
2024/01/24 01:47:46;;;;;;;3.70;1.30;;;;;;;;;;5012143;28;20476;-84
2024/01/24 01:50:14;;;;;;;1.93;1.00;;;;;;;;;;5008666;28;20485;-85
2024/01/24 01:52:42;;;;;;;1.10;1.00;;;;;;;;;;5013125;28;20447;-83
2024/01/24 01:55:10;;;;;;;5.70;2.83;;;;;;;;;;5004144;28;20444;-85
2024/01/24 01:57:39;;;;;;;2.43;1.10;;;;;;;;;;5022703;28;20466;-82
2024/01/24 02:00:08;;;;;;;2.43;1.30;;;;;;;;;;5011839;28;20450;-86
2024/01/24 02:02:35;;;;;;;0.80;0.80;;;;;;;;;;5014451;28;20469;-85
2024/01/24 02:05:02;;;;;;;1.70;1.10;;;;;;;;;;4999907;28;20467;-84
2024/01/24 02:07:29;;;;;;;1.47;0.90;;;;;;;;;;5015561;28;20466;-85
2024/01/24 02:09:57;;;;;;;1.77;1.00;;;;;;;;;;5005405;28;21096;-86
2024/01/24 02:12:24;;;;;;;1.67;1.10;;;;;;;;;;4998668;28;20469;-85
2024/01/24 02:14:51;;;;;;;1.10;0.90;;;;;;;;;;5012832;28;20471;-84
2024/01/24 02:17:19;;;;;;;1.00;1.00;;;;;;;;;;5011918;28;20623;-83
2024/01/24 02:19:46;;;;;;;1.17;0.80;;;;;;;;;;4995932;28;20450;-86
2024/01/24 02:22:13;;;;;;;1.07;0.97;;;;;;;;;;5029477;28;20444;-85
2024/01/24 02:24:40;;;;;;;4.80;1.27;;;;;;;;;;5001267;28;20457;-86
2024/01/24 02:27:08;;;;;;;1.13;1.03;;;;;;;;;;4995091;28;20485;-85
2024/01/24 02:29:35;;;;;;;1.33;1.10;;;;;;;;;;4994138;28;20458;-85
2024/01/24 02:32:03;;;;;;;1.03;0.90;;;;;;;;;;4985681;28;20481;-84
2024/01/24 02:34:32;;;;;;;1.63;0.90;;;;;;;;;;5010038;28;20474;-86
2024/01/24 02:36:59;;;;;;;4.10;2.47;;;;;;;;;;5012635;28;20560;-84
2024/01/24 02:39:26;;;;;;;1.53;0.90;;;;;;;;;;5011312;28;20543;-87
2024/01/24 02:41:54;;;;;;;1.20;1.00;;;;;;;;;;5012780;28;20466;-85
2024/01/24 02:44:23;;;;;;;1.90;0.97;;;;;;;;;;4995914;28;20494;-86
2024/01/24 02:46:51;;;;;;;0.77;0.70;;;;;;;;;;5016730;28;20474;-86
2024/01/24 02:49:18;;;;;;;1.07;0.80;;;;;;;;;;4987401;28;21596;-85
2024/01/24 02:51:45;;;;;;;1.87;1.00;;;;;;;;;;5019931;28;20560;-85
2024/01/24 02:54:12;;;;;;;1.30;0.90;;;;;;;;;;5013185;28;20453;-86
2024/01/24 02:56:40;;;;;;;1.00;0.70;;;;;;;;;;5029299;28;20485;-86
2024/01/24 02:59:07;;;;;;;1.10;0.73;;;;;;;;;;5008992;28;20756;-83
2024/01/24 03:01:34;;;;;;;0.87;0.80;;;;;;;;;;4998623;28;20469;-86
2024/01/24 03:04:01;;;;;;;1.10;0.80;;;;;;;;;;5012352;28;20558;-85
2024/01/24 03:06:28;;;;;;;0.70;0.67;;;;;;;;;;4983353;28;20561;-85
2024/01/24 03:08:59;;;;;;;1.00;0.50;;;;;;;;;;4981928;28;20450;-85
2024/01/24 03:11:26;;;;;;;1.17;0.70;;;;;;;;;;4989454;28;20431;-86
2024/01/24 03:13:53;;;;;;;0.60;0.60;;;;;;;;;;5010039;28;20451;-86
2024/01/24 03:16:20;;;;;;;1.20;0.70;;;;;;;;;;4994293;28;20501;-82
2024/01/24 03:18:48;;;;;;;0.43;0.40;;;;;;;;;;5018815;28;20457;-86
2024/01/24 03:21:17;;;;;;;0.50;0.50;;;;;;;;;;5029404;28;20513;-86
2024/01/24 03:23:45;;;;;;;0.90;0.67;;;;;;;;;;5018217;28;20434;-87
2024/01/24 03:26:16;;;;;;;0.60;0.60;;;;;;;;;;5015119;28;20608;-86
2024/01/24 03:28:43;;;;;;;0.50;0.47;;;;;;;;;;5014482;28;20459;-87
2024/01/24 03:31:10;;;;;;;1.00;0.67;;;;;;;;;;5003562;28;20954;-82
2024/01/24 03:33:37;;;;;;;1.07;0.60;;;;;;;;;;5005526;28;20540;-85
2024/01/24 03:36:05;;;;;;;1.33;0.53;;;;;;;;;;5022726;28;21022;-84
2024/01/24 03:38:33;;;;;;;0.40;0.40;;;;;;;;;;5020594;28;20473;-83
2024/01/24 03:41:00;;;;;;;0.70;0.40;;;;;;;;;;5001407;28;20576;-84
2024/01/24 03:43:27;;;;;;;0.40;0.30;;;;;;;;;;4990956;28;20455;-85
2024/01/24 03:45:55;;;;;;;0.87;0.30;;;;;;;;;;5013878;28;20474;-84
2024/01/24 03:48:22;;;;;;;0.50;0.50;;;;;;;;;;5012819;28;20465;-87
2024/01/24 03:50:49;;;;;;;0.40;0.40;;;;;;;;;;4994075;28;20451;-86
2024/01/24 03:53:16;;;;;;;0.40;0.40;;;;;;;;;;4986364;28;20455;-85
2024/01/24 03:55:44;;;;;;;0.90;0.50;;;;;;;;;;5008523;28;20491;-85
2024/01/24 03:58:11;;;;;;;0.40;0.37;;;;;;;;;;4988763;28;20482;-87
2024/01/24 04:00:38;;;;;;;0.50;0.40;;;;;;;;;;5013117;28;20463;-84
2024/01/24 04:03:05;;;;;;;0.43;0.30;;;;;;;;;;5011794;28;20514;-84
2024/01/24 04:05:33;;;;;;;0.40;0.30;;;;;;;;;;4996391;28;20556;-83
2024/01/24 04:08:00;;;;;;;0.40;0.40;;;;;;;;;;5013491;28;20465;-85
2024/01/24 04:10:27;;;;;;;0.40;0.40;;;;;;;;;;4987051;28;20550;-87
2024/01/24 04:12:54;;;;;;;0.40;0.30;;;;;;;;;;5008606;28;20467;-85
2024/01/24 04:15:22;;;;;;;0.40;0.30;;;;;;;;;;4995041;28;20454;-84
2024/01/24 04:17:49;;;;;;;0.33;0.30;;;;;;;;;;4985315;28;20545;-85
2024/01/24 04:20:16;;;;;;;0.80;0.30;;;;;;;;;;4989684;28;20526;-81
2024/01/24 04:22:43;;;;;;;1.50;0.40;;;;;;;;;;4997809;28;20451;-83
2024/01/24 04:25:11;;;;;;;0.30;0.30;;;;;;;;;;5015426;28;20466;-85
2024/01/24 04:27:38;;;;;;;0.87;0.40;;;;;;;;;;4991274;28;20497;-83
2024/01/24 04:30:06;;;;;;;0.40;0.30;;;;;;;;;;4989782;28;20466;-85
2024/01/24 04:32:33;;;;;;;0.77;0.30;;;;;;;;;;4987959;28;20467;-84
2024/01/24 04:35:01;;;;;;;0.30;0.30;;;;;;;;;;4990034;28;20458;-85
2024/01/24 04:37:28;;;;;;;0.40;0.40;;;;;;;;;;5014367;28;20520;-86
2024/01/24 04:39:55;;;;;;;0.93;0.40;;;;;;;;;;4998836;28;20450;-84
2024/01/24 04:42:22;;;;;;;0.40;0.40;;;;;;;;;;4998698;28;20461;-84
2024/01/24 04:44:50;;;;;;;0.30;0.30;;;;;;;;;;5001165;28;20471;-84
2024/01/24 04:47:17;;;;;;;0.50;0.40;;;;;;;;;;5014276;28;20477;-84
2024/01/24 04:49:44;;;;;;;0.43;0.43;;;;;;;;;;5015586;28;20574;-86
2024/01/24 04:52:12;;;;;;;0.40;0.40;;;;;;;;;;4989258;28;20461;-84
2024/01/24 04:54:41;;;;;;;0.50;0.40;;;;;;;;;;5000100;28;20553;-86
2024/01/24 04:57:09;;;;;;;0.50;0.50;;;;;;;;;;4985332;28;20543;-85
2024/01/24 04:59:36;;;;;;;0.40;0.40;;;;;;;;;;4991570;28;20579;-85
2024/01/24 05:02:08;;;;;;;0.50;0.30;;;;;;;;;;5017198;28;20466;-85
2024/01/24 05:04:36;;;;;;;0.50;0.50;;;;;;;;;;4990671;28;20466;-85
2024/01/24 05:07:03;;;;;;;1.57;0.50;;;;;;;;;;4990962;28;20494;-89
2024/01/24 05:09:30;;;;;;;0.40;0.30;;;;;;;;;;5009406;28;20469;-83
2024/01/24 05:11:58;;;;;;;0.50;0.50;;;;;;;;;;5009756;28;20505;-85
2024/01/24 05:14:25;;;;;;;0.73;0.40;;;;;;;;;;4984398;28;20459;-84
2024/01/24 05:16:52;;;;;;;0.60;0.40;;;;;;;;;;4999315;28;20498;-86
2024/01/24 05:19:19;;;;;;;1.23;0.40;;;;;;;;;;5006360;28;20461;-85
2024/01/24 05:21:46;;;;;;;1.43;0.50;;;;;;;;;;5019012;28;20485;-87
2024/01/24 05:24:13;;;;;;;0.50;0.50;;;;;;;;;;4990011;28;20458;-85
2024/01/24 05:26:43;;;;;;;0.40;0.40;;;;;;;;;;4986685;28;20497;-86
2024/01/24 05:29:10;;;;;;;0.40;0.40;;;;;;;;;;5006200;28;20454;-86
2024/01/24 05:31:38;;;;;;;1.13;0.90;;;;;;;;;;5004895;28;20446;-85
2024/01/24 05:34:05;;;;;;;0.40;0.40;;;;;;;;;;4981650;28;20445;-84
2024/01/24 05:36:33;;;;;;;0.50;0.50;;;;;;;;;;4997401;28;20573;-85
2024/01/24 05:39:00;;;;;;;1.20;0.60;;;;;;;;;;5014587;28;20459;-86
2024/01/24 05:41:27;;;;;;;0.93;0.50;;;;;;;;;;5014904;28;20509;-84
2024/01/24 05:43:54;;;;;;;1.80;0.40;;;;;;;;;;5016709;28;20514;-84
2024/01/24 05:46:21;;;;;;;4.60;1.37;;;;;;;;;;4997697;28;20475;-84
2024/01/24 05:48:49;;;;;;;0.90;0.60;;;;;;;;;;4970078;28;20524;-85
2024/01/24 05:51:16;;;;;;;2.33;0.60;;;;;;;;;;4981906;28;20469;-85
2024/01/24 05:53:43;;;;;;;1.90;0.50;;;;;;;;;;4996352;28;20493;-85
2024/01/24 05:56:11;;;;;;;2.40;0.83;;;;;;;;;;4997363;28;20505;-84
2024/01/24 05:58:38;;;;;;;2.23;0.70;;;;;;;;;;4999015;28;20462;-85
2024/01/24 06:01:08;;;;;;;3.77;0.70;;;;;;;;;;5019764;28;21846;-86
2024/01/24 06:03:35;;;;;;;2.00;1.00;;;;;;;;;;5020793;28;20510;-86
2024/01/24 06:06:03;;;;;;;2.97;1.70;;;;;;;;;;4986130;28;20512;-84
2024/01/24 06:08:31;;;;;;;3.93;0.87;;;;;;;;;;4997224;28;20467;-87
2024/01/24 06:10:58;;;;;;;5.77;1.40;;;;;;;;;;5011303;28;20459;-87
2024/01/24 06:13:27;;;;;;;4.90;1.03;;;;;;;;;;5014029;28;20977;-85
2024/01/24 06:15:54;;;;;;;5.33;1.00;;;;;;;;;;4989472;28;20572;-83
2024/01/24 06:18:21;;;;;;;4.00;0.90;;;;;;;;;;5007673;28;20490;-86
2024/01/24 06:20:49;;;;;;;2.67;0.77;;;;;;;;;;4988549;28;20513;-87
2024/01/24 06:23:16;;;;;;;1.80;0.87;;;;;;;;;;5014361;28;21104;-86
2024/01/24 06:25:44;;;;;;;5.97;1.20;;;;;;;;;;5019597;28;20457;-86
2024/01/24 06:28:12;;;;;;;3.77;1.60;;;;;;;;;;5017081;28;20447;-86
2024/01/24 06:30:40;;;;;;;3.83;1.73;;;;;;;;;;5012532;28;20465;-84
2024/01/24 06:33:08;;;;;;;4.20;1.30;;;;;;;;;;5004866;28;20792;-87
2024/01/24 06:35:35;;;;;;;2.60;1.37;;;;;;;;;;5017582;28;20851;-84
2024/01/24 06:38:03;;;;;;;3.17;1.40;;;;;;;;;;4987335;28;21326;-86
2024/01/24 06:40:30;;;;;;;4.30;1.57;;;;;;;;;;5001888;28;20470;-86
2024/01/24 06:42:57;;;;;;;5.07;2.00;;;;;;;;;;5010926;28;20547;-84
2024/01/24 06:45:24;;;;;;;7.53;2.10;;;;;;;;;;4974259;28;20465;-85
2024/01/24 06:47:52;;;;;;;4.00;1.87;;;;;;;;;;4991020;28;20461;-85
2024/01/24 06:50:19;;;;;;;8.17;2.73;;;;;;;;;;4986805;28;20469;-83
2024/01/24 06:52:49;;;;;;;4.40;2.23;;;;;;;;;;4991095;28;20500;-86
2024/01/24 06:55:17;;;;;;;8.37;2.93;;;;;;;;;;4991118;28;20465;-86
2024/01/24 06:57:47;;;;;;;6.77;2.03;;;;;;;;;;5015930;28;20518;-83
2024/01/24 07:00:15;;;;;;;8.30;2.23;;;;;;;;;;5000163;28;20451;-86
2024/01/24 07:02:42;;;;;;;9.47;2.07;;;;;;;;;;5019120;28;21067;-85
2024/01/24 07:05:10;;;;;;;7.63;3.10;;;;;;;;;;5025292;28;20559;-85
2024/01/24 07:07:40;;;;;;;8.33;2.70;;;;;;;;;;5026223;28;20473;-87
2024/01/24 07:10:10;;;;;;;8.93;3.07;;;;;;;;;;5019983;28;20451;-86
2024/01/24 07:12:44;;;;;;;8.43;2.70;;;;;;;;;;5013151;28;20490;-85
2024/01/24 07:15:12;;;;;;;11.23;2.40;;;;;;;;;;5003756;28;20589;-84
2024/01/24 07:17:39;;;;;;;10.70;2.47;;;;;;;;;;4999958;28;21617;-83
2024/01/24 07:20:07;;;;;;;8.90;2.60;;;;;;;;;;5006784;28;21013;-85
2024/01/24 07:22:34;;;;;;;5.80;2.60;;;;;;;;;;5005452;28;20454;-84
2024/01/24 07:25:04;;;;;;;10.63;2.50;;;;;;;;;;5006226;28;20467;-83
2024/01/24 07:27:31;;;;;;;6.40;1.87;;;;;;;;;;5005468;28;20517;-84
2024/01/24 07:29:59;;;;;;;10.63;2.47;;;;;;;;;;4989149;28;20554;-83
2024/01/24 07:32:27;;;;;;;9.60;3.30;;;;;;;;;;4979583;28;20467;-86
2024/01/24 07:34:54;;;;;;;16.03;2.63;;;;;;;;;;4978707;28;20457;-83
2024/01/24 07:37:21;;;;;;;10.83;2.57;;;;;;;;;;4980602;28;20481;-86
2024/01/24 07:39:49;;;;;;;12.27;3.00;;;;;;;;;;4989847;28;21139;-85
2024/01/24 07:42:18;;;;;;;15.97;4.00;;;;;;;;;;5005450;28;20554;-85
2024/01/24 07:44:45;;;;;;;9.80;3.57;;;;;;;;;;4980466;28;20486;-85
2024/01/24 07:47:12;;;;;;;12.30;3.57;;;;;;;;;;4979807;28;20494;-85
2024/01/24 07:49:39;;;;;;;7.30;2.83;;;;;;;;;;5008430;28;20469;-85
2024/01/24 07:52:07;;;;;;;9.13;2.80;;;;;;;;;;5002398;28;20973;-87
2024/01/24 07:54:48;;;;;;;13.37;3.17;;;;;;;;;;5010686;28;20447;-86
2024/01/24 07:57:15;;;;;;;9.20;3.20;;;;;;;;;;5008739;28;20492;-84
2024/01/24 07:59:45;;;;;;;9.27;2.93;;;;;;;;;;4991535;28;20455;-85
2024/01/24 08:02:14;;;;;;;10.27;2.87;;;;;;;;;;5010254;28;20446;-85
2024/01/24 08:04:41;;;;;;;14.13;3.27;;;;;;;;;;4990881;28;20454;-86
2024/01/24 08:07:10;;;;;;;11.03;2.53;;;;;;;;;;4984379;28;21190;-84
2024/01/24 08:09:45;;;;;;;16.27;3.40;;;;;;;;;;4984954;28;20462;-84
2024/01/24 08:12:15;;;;;;;13.20;2.93;;;;;;;;;;4979990;28;20462;-84
2024/01/24 08:14:43;;;;;;;10.23;2.43;;;;;;;;;;4986668;28;20478;-85
2024/01/24 08:17:14;;;;;;;16.63;4.30;;;;;;;;;;5012316;28;20487;-85
2024/01/24 08:19:44;;;;;;;9.77;2.70;;;;;;;;;;4983922;28;20462;-85
2024/01/24 08:22:18;;;;;;;11.97;3.33;;;;;;;;;;4988131;28;20453;-85
2024/01/24 08:24:45;;;;;;;17.43;2.93;;;;;;;;;;5017254;28;20476;-86
2024/01/24 08:27:12;;;;;;;14.53;3.27;;;;;;;;;;4986645;28;20500;-82
2024/01/24 08:29:45;;;;;;;12.57;4.07;;;;;;;;;;5011893;28;20533;-84
2024/01/24 08:32:13;;;;;;;14.20;3.30;;;;;;;;;;5011685;28;20549;-83
2024/01/24 08:34:40;;;;;;;18.03;4.10;;;;;;;;;;4997741;28;20459;-85
2024/01/24 08:37:08;;;;;;;16.90;3.53;;;;;;;;;;5025363;28;20466;-86
2024/01/24 08:39:35;;;;;;;13.03;3.97;;;;;;;;;;5000209;28;21036;-86
2024/01/24 08:42:03;;;;;;;12.87;3.60;;;;;;;;;;5005249;28;20525;-82
2024/01/24 08:44:30;;;;;;;12.00;2.80;;;;;;;;;;4998574;28;20442;-86
2024/01/24 08:46:58;;;;;;;15.30;3.73;;;;;;;;;;4990828;28;20482;-86
2024/01/24 08:49:26;;;;;;;13.50;4.07;;;;;;;;;;5007385;28;20533;-85
2024/01/24 08:51:59;;;;;;;11.37;3.40;;;;;;;;;;5003684;28;20942;-86
2024/01/24 08:54:26;;;;;;;18.07;3.67;;;;;;;;;;5000557;28;20522;-86
2024/01/24 08:57:01;;;;;;;16.80;3.70;;;;;;;;;;4983356;28;20486;-84
2024/01/24 08:59:34;;;;;;;13.90;3.17;;;;;;;;;;5010168;28;20493;-84
2024/01/24 09:02:07;;;;;;;11.57;4.43;;;;;;;;;;5011623;28;20977;-82
2024/01/24 09:04:40;;;;;;;12.10;3.63;;;;;;;;;;5011356;28;20550;-83
2024/01/24 09:07:08;;;;;;;13.93;4.10;;;;;;;;;;5012277;28;20477;-83
2024/01/24 09:09:36;;;;;;;11.40;3.00;;;;;;;;;;4991949;28;20471;-84
2024/01/24 09:12:07;;;;;;;19.10;4.50;;;;;;;;;;5017582;28;20477;-85
2024/01/24 09:14:34;;;;;;;19.10;4.60;;;;;;;;;;5017422;28;20463;-84
2024/01/24 09:17:07;;;;;;;14.33;4.60;;;;;;;;;;4993487;28;20496;-83
2024/01/24 09:19:37;;;;;;;12.90;4.57;;;;;;;;;;4999703;28;20466;-86
2024/01/24 09:22:07;;;;;;;12.23;3.67;;;;;;;;;;5015296;28;20449;-85
2024/01/24 09:24:35;;;;;;;9.60;3.80;;;;;;;;;;5011603;28;20449;-85
2024/01/24 09:27:03;;;;;;;18.70;4.03;;;;;;;;;;5001449;28;20511;-84
2024/01/24 09:29:31;;;;;;;15.70;3.77;;;;;;;;;;4993839;28;20442;-85
2024/01/24 09:32:01;;;;;;;14.50;4.30;;;;;;;;;;4990424;28;20439;-83
2024/01/24 09:34:30;;;;;;;16.67;5.07;;;;;;;;;;5013973;28;20455;-86
2024/01/24 09:36:57;;;;;;;10.90;4.13;;;;;;;;;;5018115;28;20683;-86
2024/01/24 09:39:27;;;;;;;13.53;4.27;;;;;;;;;;5028776;28;20879;-86
2024/01/24 09:42:04;;;;;;;16.83;4.33;;;;;;;;;;5035964;28;20469;-85
2024/01/24 09:44:34;;;;;;;20.27;4.50;;;;;;;;;;5012375;28;20469;-83
2024/01/24 09:47:02;;;;;;;14.50;3.93;;;;;;;;;;5008152;28;20462;-85
2024/01/24 09:49:31;;;;;;;17.10;4.00;;;;;;;;;;5030279;28;20482;-86
2024/01/24 09:51:59;;;;;;;19.17;4.30;;;;;;;;;;5003030;28;20457;-84
2024/01/24 09:54:28;;;;;;;19.87;5.80;;;;;;;;;;5024221;28;20452;-85
2024/01/24 09:56:55;;;;;;;18.33;4.70;;;;;;;;;;5015355;28;20462;-85
2024/01/24 09:59:22;;;;;;;14.97;3.97;;;;;;;;;;5033304;28;20513;-86
2024/01/24 10:01:53;;;;;;;18.00;4.33;;;;;;;;;;5012909;28;20462;-86
2024/01/24 10:04:21;;;;;;;13.60;3.87;;;;;;;;;;5028081;28;20490;-84
2024/01/24 10:06:49;;;;;;;15.37;3.87;;;;;;;;;;5001130;28;20485;-84
2024/01/24 10:09:16;;;;;;;16.30;4.37;;;;;;;;;;5006022;28;20462;-86
2024/01/24 10:11:43;;;;;;;16.43;4.30;;;;;;;;;;4999925;28;20462;-84
2024/01/24 10:14:14;;;;;;;13.10;4.53;;;;;;;;;;4999859;28;20450;-83
2024/01/24 10:16:43;;;;;;;12.87;4.20;;;;;;;;;;5021828;28;20478;-84
2024/01/24 10:19:12;;;;;;;16.13;3.70;;;;;;;;;;5002788;28;20497;-84
2024/01/24 10:21:41;;;;;;;15.80;6.80;;;;;;;;;;4997410;28;22114;-85
2024/01/24 10:24:11;;;;;;;13.87;4.43;;;;;;;;;;5007435;28;20465;-84
2024/01/24 10:26:40;;;;;;;13.07;4.53;;;;;;;;;;5023264;28;20478;-85
2024/01/24 10:29:08;;;;;;;13.10;3.20;;;;;;;;;;5008415;28;20473;-86
2024/01/24 10:31:35;;;;;;;26.33;4.43;;;;;;;;;;4998126;28;20557;-85
2024/01/24 10:34:07;;;;;;;19.30;5.40;;;;;;;;;;5003389;28;20441;-85
2024/01/24 10:36:38;;;;;;;16.07;3.90;;;;;;;;;;5025217;28;20573;-85
2024/01/24 10:39:11;;;;;;;15.97;5.83;;;;;;;;;;5004167;28;20493;-84
2024/01/24 10:41:44;;;;;;;14.20;3.87;;;;;;;;;;4995178;28;20529;-83
2024/01/24 10:44:11;;;;;;;17.47;4.07;;;;;;;;;;4996032;28;20438;-88
2024/01/24 10:46:41;;;;;;;15.63;4.30;;;;;;;;;;5022163;28;20490;-84
2024/01/24 10:49:15;;;;;;;20.47;5.00;;;;;;;;;;4999711;28;20478;-84
2024/01/24 10:51:52;;;;;;;9.60;3.97;;;;;;;;;;4993969;28;20467;-84
2024/01/24 10:54:20;;;;;;;20.03;4.40;;;;;;;;;;5020335;28;20454;-86
2024/01/24 10:56:50;;;;;;;23.70;5.33;;;;;;;;;;5020094;28;20478;-86
2024/01/24 10:59:28;;;;;;;13.57;4.80;;;;;;;;;;5012022;28;20483;-86
2024/01/24 11:02:04;;;;;;;15.80;4.20;;;;;;;;;;5021488;28;20581;-85
2024/01/24 11:04:40;;;;;;;22.27;4.73;;;;;;;;;;5001494;28;20457;-85
2024/01/24 11:07:12;;;;;;;19.77;4.23;;;;;;;;;;5005546;28;20531;-86
2024/01/24 11:10:05;;;;;;;11.00;4.70;;;;;;;;;;4998717;28;21870;-85
2024/01/24 11:12:35;;;;;;;16.23;4.53;;;;;;;;;;5003872;28;20468;-85
2024/01/24 11:15:08;;;;;;;14.60;4.33;;;;;;;;;;5001569;28;20911;-85
2024/01/24 11:17:35;;;;;;;14.80;3.53;;;;;;;;;;5020471;28;20535;-86
2024/01/24 11:20:07;;;;;;;15.23;4.97;;;;;;;;;;5006115;28;20570;-86
2024/01/24 11:22:36;;;;;;;21.97;4.50;;;;;;;;;;4997572;28;20446;-87
2024/01/24 11:25:04;;;;;;;9.23;4.63;;;;;;;;;;5022424;28;20452;-86
2024/01/24 11:27:33;;;;;;;21.67;4.20;;;;;;;;;;4997652;28;20475;-85
2024/01/24 11:30:23;;;;;;;15.03;3.97;;;;;;;;;;5022994;28;20493;-85
2024/01/24 11:33:37;;;;;;;;;;;;;;;;;;;;;
2024/01/24 11:36:30;;;;;;;17.97;4.20;;;;;;;;;;5047744;22;20524;-87
2024/01/24 11:39:00;;;;;;;16.30;5.83;;;;;;;;;;5026975;28;20461;-84
2024/01/24 11:41:29;;;;;;;23.40;4.27;;;;;;;;;;5013229;28;20482;-84
2024/01/24 11:43:59;;;;;;;12.33;5.97;;;;;;;;;;5024233;28;20466;-86
2024/01/24 11:46:37;;;;;;;13.20;3.47;;;;;;;;;;5022006;28;20535;-85
2024/01/24 11:49:07;;;;;;;11.77;4.00;;;;;;;;;;5023618;28;20450;-87
2024/01/24 11:51:35;;;;;;;19.70;4.77;;;;;;;;;;5020857;28;20437;-86
2024/01/24 11:54:03;;;;;;;17.97;3.67;;;;;;;;;;5021365;28;20466;-86
2024/01/24 11:56:34;;;;;;;15.97;4.30;;;;;;;;;;4993802;28;20486;-87
2024/01/24 11:59:04;;;;;;;11.67;3.33;;;;;;;;;;4995439;28;20478;-86
2024/01/24 12:01:45;;;;;;;12.40;4.20;;;;;;;;;;4998228;28;20431;-87
2024/01/24 12:04:15;;;;;;;18.27;4.60;;;;;;;;;;5021358;28;20462;-83
2024/01/24 12:06:47;;;;;;;16.83;4.30;;;;;;;;;;5005389;28;20713;-85
2024/01/24 12:09:16;;;;;;;14.80;3.93;;;;;;;;;;5010930;28;20419;-86
2024/01/24 12:11:46;;;;;;;15.33;3.57;;;;;;;;;;5029261;28;20444;-85
2024/01/24 12:14:15;;;;;;;13.60;3.70;;;;;;;;;;5012812;28;20453;-82
2024/01/24 12:16:42;;;;;;;13.90;3.77;;;;;;;;;;5005741;28;20473;-86
2024/01/24 12:19:11;;;;;;;18.13;4.47;;;;;;;;;;5009615;28;20484;-83
2024/01/24 12:21:39;;;;;;;23.43;4.73;;;;;;;;;;5020272;28;20470;-83
2024/01/24 12:24:06;;;;;;;14.33;4.73;;;;;;;;;;5016490;28;20466;-87
2024/01/24 12:26:35;;;;;;;15.17;4.23;;;;;;;;;;5003304;28;20466;-85
2024/01/24 12:29:18;;;;;;;11.00;3.40;;;;;;;;;;5015158;28;20500;-86
2024/01/24 12:31:48;;;;;;;15.00;3.70;;;;;;;;;;5017277;28;20459;-86
2024/01/24 12:34:16;;;;;;;12.73;3.90;;;;;;;;;;5020061;28;20454;-87
2024/01/24 12:36:44;;;;;;;17.07;3.77;;;;;;;;;;5015716;28;20662;-86
2024/01/24 12:39:12;;;;;;;18.90;4.80;;;;;;;;;;5016095;28;20470;-84
2024/01/24 12:41:41;;;;;;;11.27;4.00;;;;;;;;;;5002988;28;20457;-86
2024/01/24 12:44:11;;;;;;;13.47;3.50;;;;;;;;;;5014299;28;20446;-86
2024/01/24 12:46:40;;;;;;;15.27;4.20;;;;;;;;;;4990321;28;20469;-87
2024/01/24 12:49:08;;;;;;;21.87;3.90;;;;;;;;;;5016226;28;20458;-86
2024/01/24 12:51:40;;;;;;;14.03;4.33;;;;;;;;;;4989148;28;20521;-85
2024/01/24 12:54:09;;;;;;;16.63;3.70;;;;;;;;;;5002317;28;20450;-85
2024/01/24 12:56:39;;;;;;;15.40;4.30;;;;;;;;;;5018171;28;20466;-85
2024/01/24 12:59:08;;;;;;;12.80;3.90;;;;;;;;;;5017157;28;20486;-85
2024/01/24 13:01:41;;;;;;;21.00;6.17;;;;;;;;;;5004739;28;20482;-87
2024/01/24 13:04:12;;;;;;;18.63;4.23;;;;;;;;;;5019869;28;20586;-84
2024/01/24 13:06:42;;;;;;;12.80;4.53;;;;;;;;;;4997950;28;20471;-83
2024/01/24 13:09:11;;;;;;;14.93;3.90;;;;;;;;;;5014594;28;20531;-87
2024/01/24 13:11:39;;;;;;;21.43;5.20;;;;;;;;;;4996056;28;20520;-83
2024/01/24 13:14:07;;;;;;;20.70;4.77;;;;;;;;;;4991169;28;20501;-84
2024/01/24 13:16:38;;;;;;;12.77;4.67;;;;;;;;;;5012673;28;20483;-86
2024/01/24 13:23:06;;;;;;;14.13;4.20;;;;;;;;;;4930031;29;20454;-84
2024/01/24 13:25:37;;;;;;;14.13;4.27;;;;;;;;;;4961246;28;20474;-84
2024/01/24 13:28:06;;;;;;;13.73;3.83;;;;;;;;;;5026057;28;20437;-88
2024/01/24 13:30:38;;;;;;;15.00;4.23;;;;;;;;;;5010936;28;20453;-83
2024/01/24 13:33:10;;;;;;;12.80;3.60;;;;;;;;;;5010276;28;20525;-87
2024/01/24 13:35:37;;;;;;;13.50;4.03;;;;;;;;;;5035592;28;20494;-87
2024/01/24 13:38:06;;;;;;;12.97;3.50;;;;;;;;;;5024858;28;20956;-87
2024/01/24 13:40:34;;;;;;;11.43;3.53;;;;;;;;;;5021239;28;20501;-85
2024/01/24 13:43:01;;;;;;;15.03;5.27;;;;;;;;;;5014145;28;20472;-82
2024/01/24 13:45:32;;;;;;;20.67;4.40;;;;;;;;;;4996097;28;20447;-83
2024/01/24 13:48:08;;;;;;;17.03;4.33;;;;;;;;;;5019013;28;20789;-85
2024/01/24 13:53:14;;;;;;;13.77;3.77;;;;;;;;;;5032149;22;20499;-85
2024/01/24 13:55:42;;;;;;;11.13;3.90;;;;;;;;;;5016623;28;20568;-86
2024/01/24 13:58:12;;;;;;;13.97;4.90;;;;;;;;;;5028446;28;20455;-84
2024/01/24 14:00:51;;;;;;;12.40;4.13;;;;;;;;;;5026168;28;20475;-83
2024/01/24 14:03:28;;;;;;;17.03;3.57;;;;;;;;;;5017686;28;20529;-86
2024/01/24 14:05:58;;;;;;;17.83;3.53;;;;;;;;;;5028186;28;20470;-84
2024/01/24 14:08:26;;;;;;;7.80;4.17;;;;;;;;;;5012748;28;20486;-85
2024/01/24 14:11:14;;;;;;;15.50;3.37;;;;;;;;;;5022061;28;20453;-85
2024/01/24 14:13:51;;;;;;;14.10;3.60;;;;;;;;;;5032051;28;20462;-86
2024/01/24 14:23:16;;;;;;;18.60;5.07;;;;;;;;;;4953696;28;20448;-83
2024/01/24 14:25:49;;;;;;;19.90;4.47;;;;;;;;;;4943065;28;20466;-84
2024/01/24 14:28:45;;;;;;;12.97;3.97;;;;;;;;;;4955914;28;20513;-86
2024/01/24 14:31:33;;;;;;;11.33;4.10;;;;;;;;;;5006438;28;20446;-86
2024/01/24 14:34:04;;;;;;;14.30;4.63;;;;;;;;;;5028501;28;20468;-88
2024/01/24 14:36:34;;;;;;;14.10;3.73;;;;;;;;;;5031378;28;20488;-86
2024/01/24 14:39:07;;;;;;;13.33;3.37;;;;;;;;;;5030116;28;20450;-87
2024/01/24 14:41:35;;;;;;;11.67;4.53;;;;;;;;;;5014084;28;22152;-85
2024/01/24 14:44:04;;;;;;;14.43;3.73;;;;;;;;;;5032967;28;20441;-88
2024/01/24 14:46:32;;;;;;;14.60;4.30;;;;;;;;;;5041429;28;20476;-86
2024/01/24 14:49:02;;;;;;;23.80;4.37;;;;;;;;;;5021832;28;20463;-85
2024/01/24 14:51:32;;;;;;;14.40;4.33;;;;;;;;;;5023365;28;20497;-87
2024/01/24 14:53:59;;;;;;;13.07;4.03;;;;;;;;;;5010409;28;20493;-86
2024/01/24 14:56:29;;;;;;;19.70;4.03;;;;;;;;;;5013947;28;20488;-85
2024/01/24 14:58:57;;;;;;;13.20;4.30;;;;;;;;;;5001415;28;20469;-85
2024/01/24 15:01:24;;;;;;;11.77;3.13;;;;;;;;;;5002923;28;20489;-85
2024/01/24 15:03:54;;;;;;;14.27;4.47;;;;;;;;;;5008707;28;20507;-85